Goodland, Texas
Current Conditions -  °F | °C
As of 12:15 PM on Friday 31 Oct 2014 (Local Time) from KCVN Reporting Station
Clear Clear  
Wind Chill: 55°   Ceiling: Unl
Heat Index: 55°   Visibility: 10mi
Dew Point: 30°   Wind: 10mph
Humidity: 38%   Direction: 130°SE
Pressure: 30.49"   Gusts: NA
Location:  34.1266°N, 102.525°W
Report Text: KCVN 311715Z AUTO 13009KT 10SM CLR 13/M01 A3049 RMK AO1
Loading
Personal Weather Stations






























Interactive Weather Map
Tropical Storm Tracking
New forecast layout! Learn more

10-Day Weather Forecast

Advertisements
Track Severe Weather on mobile